Belmar-Farmingdale, NJ

1:20 AM EDT on March 27, 2017 (GMT -0400)
Allaire

Weather History for KBLM - March, 2013

Change the Weather History Date:

Wednesday, March 20, 2013

  Actual Average Record
Temperature  
Mean Temperature 39 °F -  
Max Temperature 46 °F 47 °F 64 °F (2012)
Min Temperature 32 °F 32 °F 26 °F (2004)
Degree Days  
Heating Degree Days 26    
Moisture  
Dew Point 18 °F    
Average Humidity 43    
Maximum Humidity 60    
Minimum Humidity 29    
Precipitation  
Precipitation 0.00 in - - ()
Sea Level Pressure  
Sea Level Pressure 29.86 in    
Wind  
Wind Speed 13 mph (West)    
Max Wind Speed 24 mph    
Max Gust Speed 32 mph    
Visibility 10 miles    
Events      
Averages and records for this station are not official NWS values.
T = Trace of Precipitation, MM = Missing Value Source: NWS Daily Summary

Daily Weather History Graph

Daily Weather History Graph

Search for Another Location

Airport or City:

Trip Planner

Search our weather history database for the weather conditions in past years. The results will help you decide how hot, cold, wet, or windy it might be!

Date:

Astronomy

Mar. 20, 2013 Rise Set
Actual Time 6:59 AM EDT 7:08 PM EDT
Civil Twilight 6:32 AM EDT 7:35 PM EDT
Nautical Twilight 6:00 AM EDT 8:07 PM EDT
Astronomical Twilight 5:28 AM EDT 8:40 PM EDT
Moon 12:41 PM EDT (3/20) 2:37 AM EDT (3/20)
Length of Visible Light 13h 03m
Length of Day
12h 09m
First Quarter, 59% of the Moon is Illuminated
Mar 20
First Quarter
Mar 27
Full
Apr 3
Last Quarter
Apr 10
New
Apr 18
First Quarter

Hourly Weather History & Observations

Time (EDT) Temp. Windchill Dew Point Humidity Pressure Visibility Wind Dir Wind Speed Gust Speed Precip Events Conditions
12:15 AM 39.2 °F 30.5 °F 15.8 °F 39% 29.84 in 10.0 mi West 16.1 mph 21.9 mph N/A   Mostly Cloudy
12:35 AM 37.4 °F 27.8 °F 15.8 °F 41% 29.84 in 10.0 mi WNW 17.3 mph 28.8 mph N/A   Overcast
12:55 AM 37.4 °F 28.5 °F 15.8 °F 41% 29.84 in 10.0 mi WNW 15.0 mph 20.7 mph N/A   Partly Cloudy
1:15 AM 35.6 °F 27.5 °F 17.6 °F 48% 29.85 in 10.0 mi WNW 11.5 mph - N/A   Clear
1:35 AM 35.6 °F 27.5 °F 17.6 °F 48% 29.86 in 10.0 mi West 11.5 mph - N/A   Clear
1:55 AM 35.6 °F 26.6 °F 17.6 °F 48% 29.87 in 10.0 mi WNW 13.8 mph 24.2 mph N/A   Clear
2:15 AM 35.6 °F 25.2 °F 17.6 °F 48% 29.88 in 10.0 mi West 18.4 mph 25.3 mph N/A   Clear
2:35 AM 35.6 °F 26.6 °F 17.6 °F 48% 29.88 in 10.0 mi WNW 13.8 mph 21.9 mph N/A   Clear
2:55 AM 35.6 °F 26.6 °F 17.6 °F 48% 29.89 in 10.0 mi WNW 13.8 mph 19.6 mph N/A   Clear
3:15 AM 33.8 °F 25.3 °F 17.6 °F 52% 29.89 in 10.0 mi West 11.5 mph 17.3 mph N/A   Clear
3:35 AM 33.8 °F 24.8 °F 17.6 °F 52% 29.90 in 10.0 mi West 12.7 mph 21.9 mph N/A   Clear
3:55 AM 33.8 °F 26.4 °F 17.6 °F 52% 29.90 in 10.0 mi West 9.2 mph 16.1 mph N/A   Clear
4:15 AM 33.8 °F 25.8 °F 17.6 °F 52% 29.90 in 10.0 mi West 10.4 mph - N/A   Clear
4:35 AM 32.0 °F 24.8 °F 17.6 °F 55% 29.90 in 10.0 mi West 8.1 mph - N/A   Clear
4:55 AM 32.0 °F 26.4 °F 17.6 °F 55% 29.91 in 10.0 mi West 5.8 mph - N/A   Clear
5:15 AM 32.0 °F 24.2 °F 19.4 °F 60% 29.91 in 10.0 mi West 9.2 mph - N/A   Clear
5:35 AM 32.0 °F 24.8 °F 19.4 °F 60% 29.90 in 10.0 mi West 8.1 mph - N/A   Clear
5:55 AM 32.0 °F 23.6 °F 17.6 °F 55% 29.90 in 10.0 mi West 10.4 mph - N/A   Clear
6:15 AM 32.0 °F 23.0 °F 17.6 °F 55% 29.90 in 10.0 mi West 11.5 mph 16.1 mph N/A   Clear
6:35 AM 32.0 °F 23.0 °F 17.6 °F 55% 29.90 in 10.0 mi West 11.5 mph 16.1 mph N/A   Clear
6:55 AM 32.0 °F 24.8 °F 17.6 °F 55% 29.91 in 10.0 mi West 8.1 mph - N/A   Clear
7:15 AM 32.0 °F 25.6 °F 17.6 °F 55% 29.91 in 10.0 mi West 6.9 mph - N/A   Clear
7:35 AM 32.0 °F 23.6 °F 17.6 °F 55% 29.91 in 10.0 mi West 10.4 mph 17.3 mph N/A   Clear
7:55 AM 33.8 °F 23.9 °F 17.6 °F 52% 29.90 in 10.0 mi West 15.0 mph 19.6 mph N/A   Clear
8:15 AM 33.8 °F 23.9 °F 17.6 °F 52% 29.90 in 10.0 mi West 15.0 mph 20.7 mph N/A   Clear
8:35 AM 35.6 °F 26.2 °F 15.8 °F 44% 29.90 in 10.0 mi West 15.0 mph 24.2 mph N/A   Clear
8:55 AM 35.6 °F 25.9 °F 17.6 °F 48% 29.90 in 10.0 mi West 16.1 mph 23.0 mph N/A   Clear
9:15 AM 37.4 °F 28.2 °F 15.8 °F 41% 29.90 in 10.0 mi WNW 16.1 mph 26.5 mph N/A   Clear
9:35 AM 37.4 °F 28.5 °F 17.6 °F 45% 29.90 in 10.0 mi West 15.0 mph 26.5 mph N/A   Clear
9:55 AM 37.4 °F 27.8 °F 17.6 °F 45% 29.90 in 10.0 mi West 17.3 mph 32.2 mph N/A   Clear
10:15 AM 39.2 °F 29.6 °F 17.6 °F 42% 29.90 in 10.0 mi West 19.6 mph 27.6 mph N/A   Clear
10:35 AM 39.2 °F 30.2 °F 17.6 °F 42% 29.90 in 10.0 mi West 17.3 mph 24.2 mph N/A   Clear
10:55 AM 39.2 °F 29.8 °F 17.6 °F 42% 29.90 in 10.0 mi West 18.4 mph 26.5 mph N/A   Clear
11:15 AM 41.0 °F 33.5 °F 17.6 °F 39% 29.90 in 10.0 mi WNW 13.8 mph 23.0 mph N/A   Clear
11:55 AM 42.8 °F 35.8 °F 17.6 °F 36% 29.88 in 10.0 mi West 13.8 mph 26.5 mph N/A   Clear
12:15 PM 42.8 °F 35.1 °F 17.6 °F 36% 29.88 in 10.0 mi WNW 16.1 mph 19.6 mph N/A   Clear
12:35 PM 42.8 °F 34.8 °F 17.6 °F 36% 29.88 in 10.0 mi West 17.3 mph 26.5 mph N/A   Clear
12:55 PM 44.6 °F 36.6 °F 17.6 °F 34% 29.87 in 10.0 mi West 19.6 mph 23.0 mph N/A   Clear
1:15 PM 44.6 °F 38.4 °F 17.6 °F 34% 29.86 in 10.0 mi WSW 12.7 mph 21.9 mph N/A   Clear
1:35 PM 44.6 °F 37.2 °F 17.6 °F 34% 29.85 in 10.0 mi WSW 17.3 mph 23.0 mph N/A   Clear
1:55 PM 44.6 °F 37.4 °F 15.8 °F 31% 29.85 in 10.0 mi WSW 16.1 mph 26.5 mph N/A   Clear
2:15 PM 46.4 °F 40.4 °F 17.6 °F 32% 29.84 in 10.0 mi West 13.8 mph 20.7 mph N/A   Partly Cloudy
2:35 PM 46.4 °F 39.8 °F 17.6 °F 32% 29.83 in 10.0 mi West 16.1 mph 24.2 mph N/A   Clear
2:55 PM 46.4 °F 39.2 °F 17.6 °F 32% 29.82 in 10.0 mi West 18.4 mph 23.0 mph N/A   Partly Cloudy
3:15 PM 46.4 °F 40.1 °F 17.6 °F 32% 29.82 in 10.0 mi WSW 15.0 mph 24.2 mph N/A   Partly Cloudy
3:35 PM 46.4 °F 39.8 °F 17.6 °F 32% 29.82 in 10.0 mi WSW 16.1 mph 26.5 mph N/A   Scattered Clouds
3:55 PM 46.4 °F 40.1 °F 17.6 °F 32% 29.81 in 10.0 mi West 15.0 mph 25.3 mph N/A   Mostly Cloudy
4:15 PM 46.4 °F 41.1 °F 17.6 °F 32% 29.81 in 10.0 mi West 11.5 mph 29.9 mph N/A   Mostly Cloudy
4:35 PM 46.4 °F 38.1 °F 15.8 °F 29% 29.81 in 10.0 mi West 24.2 mph 28.8 mph N/A   Mostly Cloudy
4:55 PM 44.6 °F 36.9 °F 17.6 °F 34% 29.81 in 10.0 mi West 18.4 mph 24.2 mph N/A   Overcast
5:15 PM 44.6 °F 38.4 °F 17.6 °F 34% 29.81 in 10.0 mi WNW 12.7 mph 20.7 mph N/A   Mostly Cloudy
5:35 PM 44.6 °F 40.2 °F 17.6 °F 34% 29.81 in 10.0 mi West 8.1 mph - N/A   Overcast
5:55 PM 46.4 °F 41.1 °F 15.8 °F 29% 29.81 in 10.0 mi WNW 11.5 mph - N/A   Overcast
6:15 PM 44.6 °F 39.7 °F 15.8 °F 31% 29.81 in 10.0 mi WNW 9.2 mph - N/A   Mostly Cloudy
6:35 PM 44.6 °F 40.2 °F 15.8 °F 31% 29.81 in 10.0 mi West 8.1 mph 16.1 mph N/A   Overcast
6:55 PM 44.6 °F 42.2 °F 15.8 °F 31% 29.81 in 10.0 mi West 4.6 mph - N/A   Mostly Cloudy
7:15 PM 42.8 °F 40.1 °F 15.8 °F 34% 29.80 in 10.0 mi West 4.6 mph - N/A   Scattered Clouds
7:35 PM 42.8 °F 41.1 °F 15.8 °F 34% 29.80 in 10.0 mi West 3.5 mph - N/A   Partly Cloudy
7:55 PM 41.0 °F - 17.6 °F 39% 29.80 in 10.0 mi Calm Calm - N/A   Mostly Cloudy
8:15 PM 41.0 °F - 17.6 °F 39% 29.81 in 10.0 mi Calm Calm - N/A   Mostly Cloudy
8:35 PM 41.0 °F - 17.6 °F 39% 29.81 in 10.0 mi Calm Calm - N/A   Overcast
8:55 PM 42.8 °F 41.1 °F 17.6 °F 36% 29.82 in 10.0 mi WNW 3.5 mph - N/A   Overcast
9:15 PM 41.0 °F 39.0 °F 19.4 °F 42% 29.83 in 10.0 mi NW 3.5 mph - N/A   Overcast
9:35 PM 39.2 °F 35.0 °F 24.8 °F 56% 29.82 in 10.0 mi NW 5.8 mph - N/A   Mostly Cloudy
9:55 PM 39.2 °F 37.0 °F 19.4 °F 45% 29.82 in 10.0 mi NW 3.5 mph - N/A   Mostly Cloudy
10:15 PM 41.0 °F 39.0 °F 17.6 °F 39% 29.82 in 10.0 mi NNW 3.5 mph - N/A   Overcast
10:35 PM 37.4 °F 34.9 °F 21.2 °F 52% 29.83 in 10.0 mi SSW 3.5 mph - N/A   Overcast
10:55 PM 39.2 °F 35.9 °F 17.6 °F 42% 29.82 in 10.0 mi South 4.6 mph - N/A   Overcast
11:15 PM 41.0 °F - 17.6 °F 39% 29.82 in 10.0 mi Calm Calm - N/A   Overcast
11:35 PM 37.4 °F 34.9 °F 21.2 °F 52% 29.82 in 10.0 mi WNW 3.5 mph - N/A   Mostly Cloudy
11:55 PM 37.4 °F - 23.0 °F 56% 29.82 in 10.0 mi Calm Calm - N/A   Mostly Cloudy